sensor_id;sensor_type;location;lat;lon;timestamp;pressure;altitude;pressure_sealevel;temperature;humidity
20971;BME280;10644;48.834;10.088;2024-02-21T00:02:19;97619.00;;;12.37;51.68
20971;BME280;10644;48.834;10.088;2024-02-21T00:04:44;97611.34;;;12.36;51.79
20971;BME280;10644;48.834;10.088;2024-02-21T00:07:12;97608.72;;;12.37;51.57
20971;BME280;10644;48.834;10.088;2024-02-21T00:09:37;97608.84;;;12.34;52.28
20971;BME280;10644;48.834;10.088;2024-02-21T00:12:02;97609.81;;;12.32;52.12
20971;BME280;10644;48.834;10.088;2024-02-21T00:14:28;97609.97;;;12.29;52.08
20971;BME280;10644;48.834;10.088;2024-02-21T00:16:53;97605.06;;;12.24;51.80
20971;BME280;10644;48.834;10.088;2024-02-21T00:19:19;97599.13;;;12.22;52.31
20971;BME280;10644;48.834;10.088;2024-02-21T00:21:44;97598.16;;;12.25;52.34
20971;BME280;10644;48.834;10.088;2024-02-21T00:24:09;97603.31;;;12.25;52.47
20971;BME280;10644;48.834;10.088;2024-02-21T00:26:35;97601.63;;;12.24;52.39
20971;BME280;10644;48.834;10.088;2024-02-21T00:29:02;97599.97;;;12.23;52.28
20971;BME280;10644;48.834;10.088;2024-02-21T00:31:28;97600.72;;;12.25;52.32
20971;BME280;10644;48.834;10.088;2024-02-21T00:33:56;97597.25;;;12.26;52.38
20971;BME280;10644;48.834;10.088;2024-02-21T00:36:24;97605.81;;;12.26;52.24
20971;BME280;10644;48.834;10.088;2024-02-21T00:38:49;97599.06;;;12.24;52.02
20971;BME280;10644;48.834;10.088;2024-02-21T00:41:14;97599.91;;;12.24;52.62
20971;BME280;10644;48.834;10.088;2024-02-21T00:43:41;97599.13;;;12.22;52.27
20971;BME280;10644;48.834;10.088;2024-02-21T00:46:06;97589.16;;;12.16;52.23
20971;BME280;10644;48.834;10.088;2024-02-21T00:48:32;97592.56;;;12.17;52.34
20971;BME280;10644;48.834;10.088;2024-02-21T00:50:59;97588.31;;;12.16;52.58
20971;BME280;10644;48.834;10.088;2024-02-21T00:53:26;97584.16;;;12.13;52.72
20971;BME280;10644;48.834;10.088;2024-02-21T00:55:51;97577.38;;;12.12;52.38
20971;BME280;10644;48.834;10.088;2024-02-21T00:58:19;97570.41;;;12.14;52.42
20971;BME280;10644;48.834;10.088;2024-02-21T01:00:45;97575.56;;;12.14;52.37
20971;BME280;10644;48.834;10.088;2024-02-21T01:03:10;97573.72;;;12.16;52.37
20971;BME280;10644;48.834;10.088;2024-02-21T01:05:35;97574.81;;;12.12;52.28
20971;BME280;10644;48.834;10.088;2024-02-21T01:08:01;97559.47;;;12.11;52.34
20971;BME280;10644;48.834;10.088;2024-02-21T01:10:26;97553.34;;;12.13;52.12
20971;BME280;10644;48.834;10.088;2024-02-21T01:12:51;97560.06;;;12.16;52.62
20971;BME280;10644;48.834;10.088;2024-02-21T01:15:19;97553.06;;;12.19;52.47
20971;BME280;10644;48.834;10.088;2024-02-21T01:17:44;97548.84;;;12.18;52.54
20971;BME280;10644;48.834;10.088;2024-02-21T01:20:10;97547.94;;;12.19;52.39
20971;BME280;10644;48.834;10.088;2024-02-21T01:22:38;97541.88;;;12.20;52.58
20971;BME280;10644;48.834;10.088;2024-02-21T01:25:04;97543.13;;;12.12;52.57
20971;BME280;10644;48.834;10.088;2024-02-21T01:27:29;97534.06;;;12.05;52.61
20971;BME280;10644;48.834;10.088;2024-02-21T01:29:55;97536.53;;;12.06;52.98
20971;BME280;10644;48.834;10.088;2024-02-21T01:32:20;97534.75;;;12.08;52.60
20971;BME280;10644;48.834;10.088;2024-02-21T01:34:47;97533.09;;;12.07;52.78
20971;BME280;10644;48.834;10.088;2024-02-21T01:37:12;97526.25;;;12.06;51.98
20971;BME280;10644;48.834;10.088;2024-02-21T01:39:38;97516.00;;;12.06;52.66
20971;BME280;10644;48.834;10.088;2024-02-21T01:42:03;97518.50;;;12.08;52.91
20971;BME280;10644;48.834;10.088;2024-02-21T01:44:29;97514.03;;;12.11;52.78
20971;BME280;10644;48.834;10.088;2024-02-21T01:46:54;97500.31;;;12.12;52.46
20971;BME280;10644;48.834;10.088;2024-02-21T01:49:21;97500.47;;;12.09;52.96
20971;BME280;10644;48.834;10.088;2024-02-21T01:51:47;97493.31;;;11.97;52.75
20971;BME280;10644;48.834;10.088;2024-02-21T01:54:13;97489.38;;;11.90;53.37
20971;BME280;10644;48.834;10.088;2024-02-21T01:56:40;97488.81;;;11.65;53.98
20971;BME280;10644;48.834;10.088;2024-02-21T01:59:06;97487.53;;;11.55;54.24
20971;BME280;10644;48.834;10.088;2024-02-21T02:01:31;97490.75;;;11.60;54.24
20971;BME280;10644;48.834;10.088;2024-02-21T02:03:57;97488.00;;;11.65;54.27
20971;BME280;10644;48.834;10.088;2024-02-21T02:06:24;97486.75;;;11.73;53.61
20971;BME280;10644;48.834;10.088;2024-02-21T02:08:49;97479.66;;;11.78;53.86
20971;BME280;10644;48.834;10.088;2024-02-21T02:11:15;97486.94;;;11.87;53.68
20971;BME280;10644;48.834;10.088;2024-02-21T02:13:41;97479.13;;;11.90;53.67
20971;BME280;10644;48.834;10.088;2024-02-21T02:16:06;97468.84;;;11.90;53.70
20971;BME280;10644;48.834;10.088;2024-02-21T02:18:34;97473.97;;;11.90;53.59
20971;BME280;10644;48.834;10.088;2024-02-21T02:20:59;97475.78;;;11.88;53.60
20971;BME280;10644;48.834;10.088;2024-02-21T02:23:25;97460.81;;;11.79;53.98
20971;BME280;10644;48.834;10.088;2024-02-21T02:25:51;97453.72;;;11.84;53.44
20971;BME280;10644;48.834;10.088;2024-02-21T02:28:22;97449.28;;;11.88;53.86
20971;BME280;10644;48.834;10.088;2024-02-21T02:30:48;97447.53;;;11.88;53.08
20971;BME280;10644;48.834;10.088;2024-02-21T02:33:13;97447.19;;;11.77;53.85
20971;BME280;10644;48.834;10.088;2024-02-21T02:35:39;97449.31;;;11.69;54.10
20971;BME280;10644;48.834;10.088;2024-02-21T02:38:05;97444.63;;;11.40;54.33
20971;BME280;10644;48.834;10.088;2024-02-21T02:40:34;97449.59;;;11.43;54.39
20971;BME280;10644;48.834;10.088;2024-02-21T02:43:01;97438.09;;;11.52;54.66
20971;BME280;10644;48.834;10.088;2024-02-21T02:45:26;97429.31;;;11.57;53.98
20971;BME280;10644;48.834;10.088;2024-02-21T02:47:52;97427.91;;;11.50;54.17
20971;BME280;10644;48.834;10.088;2024-02-21T02:50:19;97430.13;;;11.58;54.73
20971;BME280;10644;48.834;10.088;2024-02-21T02:52:45;97429.19;;;11.60;54.39
20971;BME280;10644;48.834;10.088;2024-02-21T02:55:10;97421.19;;;11.66;53.84
20971;BME280;10644;48.834;10.088;2024-02-21T02:57:36;97421.13;;;11.68;54.08
20971;BME280;10644;48.834;10.088;2024-02-21T03:00:02;97424.25;;;11.74;53.56
20971;BME280;10644;48.834;10.088;2024-02-21T03:02:27;97422.22;;;11.81;53.65
20971;BME280;10644;48.834;10.088;2024-02-21T03:04:53;97410.00;;;11.86;53.67
20971;BME280;10644;48.834;10.088;2024-02-21T03:07:20;97416.94;;;11.84;53.68
20971;BME280;10644;48.834;10.088;2024-02-21T03:09:46;97415.59;;;11.77;53.84
20971;BME280;10644;48.834;10.088;2024-02-21T03:12:13;97415.19;;;11.67;54.32
20971;BME280;10644;48.834;10.088;2024-02-21T03:14:44;97417.53;;;11.72;54.02
20971;BME280;10644;48.834;10.088;2024-02-21T03:17:09;97407.88;;;11.58;54.26
20971;BME280;10644;48.834;10.088;2024-02-21T03:19:34;97417.13;;;11.62;53.92
20971;BME280;10644;48.834;10.088;2024-02-21T03:22:00;97411.13;;;11.43;54.66
20971;BME280;10644;48.834;10.088;2024-02-21T03:24:25;97407.97;;;11.20;55.67
20971;BME280;10644;48.834;10.088;2024-02-21T03:26:50;97395.63;;;11.28;55.44
20971;BME280;10644;48.834;10.088;2024-02-21T03:29:16;97390.06;;;11.37;55.24
20971;BME280;10644;48.834;10.088;2024-02-21T03:31:42;97388.25;;;11.20;55.94
20971;BME280;10644;48.834;10.088;2024-02-21T03:34:10;97400.34;;;11.18;56.30
20971;BME280;10644;48.834;10.088;2024-02-21T03:36:36;97397.22;;;11.30;56.42
20971;BME280;10644;48.834;10.088;2024-02-21T03:39:02;97394.09;;;11.42;55.82
20971;BME280;10644;48.834;10.088;2024-02-21T03:41:27;97398.50;;;11.57;55.86
20971;BME280;10644;48.834;10.088;2024-02-21T03:43:52;97392.97;;;11.66;55.38
20971;BME280;10644;48.834;10.088;2024-02-21T03:46:18;97378.97;;;11.73;55.56
20971;BME280;10644;48.834;10.088;2024-02-21T03:48:43;97374.34;;;11.80;55.56
20971;BME280;10644;48.834;10.088;2024-02-21T03:51:08;97364.09;;;11.80;55.09
20971;BME280;10644;48.834;10.088;2024-02-21T03:53:34;97356.31;;;11.81;55.38
20971;BME280;10644;48.834;10.088;2024-02-21T03:56:02;97364.47;;;11.89;55.20
20971;BME280;10644;48.834;10.088;2024-02-21T03:58:32;97360.47;;;11.84;55.53
20971;BME280;10644;48.834;10.088;2024-02-21T04:01:00;97360.84;;;11.76;55.07
20971;BME280;10644;48.834;10.088;2024-02-21T04:03:26;97345.97;;;11.66;55.70
20971;BME280;10644;48.834;10.088;2024-02-21T04:05:52;97364.22;;;11.41;56.87
20971;BME280;10644;48.834;10.088;2024-02-21T04:08:17;97364.22;;;11.23;58.12
20971;BME280;10644;48.834;10.088;2024-02-21T04:10:42;97349.88;;;11.19;58.01
20971;BME280;10644;48.834;10.088;2024-02-21T04:13:08;97343.06;;;11.18;58.23
20971;BME280;10644;48.834;10.088;2024-02-21T04:15:36;97342.03;;;11.03;58.54
20971;BME280;10644;48.834;10.088;2024-02-21T04:18:04;97336.56;;;11.11;57.61
20971;BME280;10644;48.834;10.088;2024-02-21T04:20:30;97347.72;;;11.10;57.95
20971;BME280;10644;48.834;10.088;2024-02-21T04:22:56;97357.78;;;11.14;58.25
20971;BME280;10644;48.834;10.088;2024-02-21T04:25:21;97360.06;;;11.20;58.28
20971;BME280;10644;48.834;10.088;2024-02-21T04:27:46;97359.59;;;11.31;57.93
20971;BME280;10644;48.834;10.088;2024-02-21T04:30:12;97349.84;;;11.37;56.77
20971;BME280;10644;48.834;10.088;2024-02-21T04:32:38;97341.53;;;11.51;56.85
20971;BME280;10644;48.834;10.088;2024-02-21T04:35:04;97346.94;;;11.63;57.10
20971;BME280;10644;48.834;10.088;2024-02-21T04:37:30;97340.69;;;11.69;56.80
20971;BME280;10644;48.834;10.088;2024-02-21T04:39:56;97346.06;;;11.81;57.19
20971;BME280;10644;48.834;10.088;2024-02-21T04:42:24;97343.13;;;11.89;56.83
20971;BME280;10644;48.834;10.088;2024-02-21T04:44:50;97341.06;;;11.95;57.01
20971;BME280;10644;48.834;10.088;2024-02-21T04:47:18;97337.63;;;11.96;57.07
20971;BME280;10644;48.834;10.088;2024-02-21T04:49:45;97329.75;;;11.99;56.77
20971;BME280;10644;48.834;10.088;2024-02-21T04:52:11;97326.28;;;12.00;56.62
20971;BME280;10644;48.834;10.088;2024-02-21T04:54:39;97319.66;;;11.96;56.42
20971;BME280;10644;48.834;10.088;2024-02-21T04:57:05;97311.84;;;11.98;56.36
20971;BME280;10644;48.834;10.088;2024-02-21T04:59:30;97309.22;;;11.99;56.43
20971;BME280;10644;48.834;10.088;2024-02-21T05:01:55;97298.13;;;11.99;56.62
20971;BME280;10644;48.834;10.088;2024-02-21T05:04:21;97294.50;;;12.03;56.59
20971;BME280;10644;48.834;10.088;2024-02-21T05:06:49;97285.88;;;12.04;56.44
20971;BME280;10644;48.834;10.088;2024-02-21T05:09:15;97283.53;;;11.99;56.51
20971;BME280;10644;48.834;10.088;2024-02-21T05:11:41;97282.25;;;11.74;56.95
20971;BME280;10644;48.834;10.088;2024-02-21T05:14:06;97280.06;;;11.66;57.10
20971;BME280;10644;48.834;10.088;2024-02-21T05:16:32;97274.56;;;11.38;57.23
20971;BME280;10644;48.834;10.088;2024-02-21T05:18:57;97285.13;;;11.32;57.94
20971;BME280;10644;48.834;10.088;2024-02-21T05:21:23;97279.25;;;11.30;57.70
20971;BME280;10644;48.834;10.088;2024-02-21T05:23:50;97293.69;;;11.14;58.95
20971;BME280;10644;48.834;10.088;2024-02-21T05:26:27;97281.94;;;11.27;58.03
20971;BME280;10644;48.834;10.088;2024-02-21T05:28:53;97285.44;;;11.43;57.71
20971;BME280;10644;48.834;10.088;2024-02-21T05:31:19;97289.09;;;11.56;57.73
20971;BME280;10644;48.834;10.088;2024-02-21T05:33:44;97289.59;;;11.64;57.55
20971;BME280;10644;48.834;10.088;2024-02-21T05:36:10;97297.72;;;11.72;57.06
20971;BME280;10644;48.834;10.088;2024-02-21T05:38:36;97290.88;;;11.73;56.92
20971;BME280;10644;48.834;10.088;2024-02-21T05:41:02;97291.84;;;11.70;57.11
20971;BME280;10644;48.834;10.088;2024-02-21T05:43:27;97286.28;;;11.62;57.14
20971;BME280;10644;48.834;10.088;2024-02-21T05:45:52;97286.19;;;11.64;56.94
20971;BME280;10644;48.834;10.088;2024-02-21T05:48:18;97289.44;;;11.67;56.46
20971;BME280;10644;48.834;10.088;2024-02-21T05:50:43;97290.34;;;11.66;56.43
20971;BME280;10644;48.834;10.088;2024-02-21T05:53:11;97283.59;;;11.64;56.83
20971;BME280;10644;48.834;10.088;2024-02-21T05:55:38;97291.00;;;11.70;56.81
20971;BME280;10644;48.834;10.088;2024-02-21T05:58:03;97293.50;;;11.71;56.63
20971;BME280;10644;48.834;10.088;2024-02-21T06:00:29;97285.81;;;11.71;56.80
20971;BME280;10644;48.834;10.088;2024-02-21T06:02:54;97279.09;;;11.69;56.57
20971;BME280;10644;48.834;10.088;2024-02-21T06:05:20;97277.44;;;11.68;56.53
20971;BME280;10644;48.834;10.088;2024-02-21T06:07:45;97279.28;;;11.47;56.44
20971;BME280;10644;48.834;10.088;2024-02-21T06:10:10;97276.50;;;11.33;56.75
20971;BME280;10644;48.834;10.088;2024-02-21T06:12:36;97286.31;;;11.25;57.17
20971;BME280;10644;48.834;10.088;2024-02-21T06:15:01;97279.75;;;11.20;57.45
20971;BME280;10644;48.834;10.088;2024-02-21T06:17:27;97265.88;;;11.05;56.95
20971;BME280;10644;48.834;10.088;2024-02-21T06:19:52;97262.59;;;11.03;56.36
20971;BME280;10644;48.834;10.088;2024-02-21T06:22:17;97275.56;;;11.00;56.84
20971;BME280;10644;48.834;10.088;2024-02-21T06:24:43;97268.97;;;10.95;57.18
20971;BME280;10644;48.834;10.088;2024-02-21T06:27:10;97268.16;;;10.94;57.66
20971;BME280;10644;48.834;10.088;2024-02-21T06:29:39;97274.09;;;10.76;57.47
20971;BME280;10644;48.834;10.088;2024-02-21T06:32:05;97278.50;;;10.54;57.90
20971;BME280;10644;48.834;10.088;2024-02-21T06:34:31;97262.59;;;10.48;58.72
20971;BME280;10644;48.834;10.088;2024-02-21T06:36:57;97253.56;;;10.21;58.29
20971;BME280;10644;48.834;10.088;2024-02-21T06:39:22;97258.09;;;10.14;59.32
20971;BME280;10644;48.834;10.088;2024-02-21T06:41:48;97262.06;;;10.01;60.04
20971;BME280;10644;48.834;10.088;2024-02-21T06:44:18;97262.81;;;9.63;60.54
20971;BME280;10644;48.834;10.088;2024-02-21T06:46:43;97259.03;;;9.52;60.75
20971;BME280;10644;48.834;10.088;2024-02-21T06:49:09;97253.22;;;9.48;60.92
20971;BME280;10644;48.834;10.088;2024-02-21T06:51:40;97266.63;;;9.53;60.98
20971;BME280;10644;48.834;10.088;2024-02-21T06:54:06;97262.94;;;9.60;61.06
20971;BME280;10644;48.834;10.088;2024-02-21T06:56:31;97248.56;;;9.78;60.70
20971;BME280;10644;48.834;10.088;2024-02-21T06:58:57;97253.50;;;9.82;60.56
20971;BME280;10644;48.834;10.088;2024-02-21T07:01:26;97247.88;;;9.94;60.63
20971;BME280;10644;48.834;10.088;2024-02-21T07:03:51;97255.81;;;9.88;61.91
20971;BME280;10644;48.834;10.088;2024-02-21T07:06:16;97248.28;;;10.05;61.10
20971;BME280;10644;48.834;10.088;2024-02-21T07:08:44;97259.25;;;10.07;59.95
20971;BME280;10644;48.834;10.088;2024-02-21T07:11:10;97251.91;;;10.20;59.66
20971;BME280;10644;48.834;10.088;2024-02-21T07:13:36;97253.84;;;10.33;59.98
20971;BME280;10644;48.834;10.088;2024-02-21T07:16:01;97252.63;;;10.42;59.75
20971;BME280;10644;48.834;10.088;2024-02-21T07:18:29;97259.53;;;10.58;59.35
20971;BME280;10644;48.834;10.088;2024-02-21T07:20:54;97254.03;;;10.67;59.27
20971;BME280;10644;48.834;10.088;2024-02-21T07:23:20;97256.66;;;10.84;59.16
20971;BME280;10644;48.834;10.088;2024-02-21T07:25:46;97250.13;;;10.96;59.24
20971;BME280;10644;48.834;10.088;2024-02-21T07:28:11;97235.00;;;11.08;58.38
20971;BME280;10644;48.834;10.088;2024-02-21T07:30:38;97237.22;;;11.16;58.76
20971;BME280;10644;48.834;10.088;2024-02-21T07:33:04;97233.19;;;11.10;58.38
20971;BME280;10644;48.834;10.088;2024-02-21T07:35:29;97237.06;;;11.19;58.31
20971;BME280;10644;48.834;10.088;2024-02-21T07:37:57;97244.50;;;11.06;58.97
20971;BME280;10644;48.834;10.088;2024-02-21T07:40:22;97241.69;;;10.75;59.80
20971;BME280;10644;48.834;10.088;2024-02-21T07:42:48;97235.03;;;10.71;59.52
20971;BME280;10644;48.834;10.088;2024-02-21T07:45:13;97231.03;;;10.84;59.24
20971;BME280;10644;48.834;10.088;2024-02-21T07:47:38;97221.75;;;10.63;59.42
20971;BME280;10644;48.834;10.088;2024-02-21T07:50:04;97212.75;;;10.36;60.65
20971;BME280;10644;48.834;10.088;2024-02-21T07:52:30;97210.00;;;10.41;60.51
20971;BME280;10644;48.834;10.088;2024-02-21T07:54:57;97214.94;;;10.25;61.05
20971;BME280;10644;48.834;10.088;2024-02-21T07:57:23;97209.22;;;10.57;60.30
20971;BME280;10644;48.834;10.088;2024-02-21T07:59:48;97204.09;;;10.76;59.84
20971;BME280;10644;48.834;10.088;2024-02-21T08:02:16;97210.94;;;10.75;60.15
20971;BME280;10644;48.834;10.088;2024-02-21T08:04:42;97200.56;;;10.78;60.31
20971;BME280;10644;48.834;10.088;2024-02-21T08:07:08;97206.72;;;10.56;60.80
20971;BME280;10644;48.834;10.088;2024-02-21T08:09:39;97203.88;;;10.80;60.68
20971;BME280;10644;48.834;10.088;2024-02-21T08:12:05;97192.91;;;10.95;59.91
20971;BME280;10644;48.834;10.088;2024-02-21T08:14:33;97207.25;;;11.16;59.16
20971;BME280;10644;48.834;10.088;2024-02-21T08:16:58;97190.22;;;11.15;58.72
20971;BME280;10644;48.834;10.088;2024-02-21T08:19:24;97189.94;;;11.38;58.92
20971;BME280;10644;48.834;10.088;2024-02-21T08:21:50;97185.22;;;11.65;58.06
20971;BME280;10644;48.834;10.088;2024-02-21T08:24:15;97176.44;;;11.86;57.54
20971;BME280;10644;48.834;10.088;2024-02-21T08:26:43;97161.66;;;12.06;56.08
20971;BME280;10644;48.834;10.088;2024-02-21T08:29:12;97150.25;;;12.27;55.31
20971;BME280;10644;48.834;10.088;2024-02-21T08:31:37;97142.66;;;12.41;54.57
20971;BME280;10644;48.834;10.088;2024-02-21T08:34:03;97143.31;;;12.60;54.45
20971;BME280;10644;48.834;10.088;2024-02-21T08:36:35;97129.78;;;12.72;53.93
20971;BME280;10644;48.834;10.088;2024-02-21T08:39:02;97134.88;;;12.58;53.01
20971;BME280;10644;48.834;10.088;2024-02-21T08:41:30;97138.16;;;12.76;53.32
20971;BME280;10644;48.834;10.088;2024-02-21T08:43:56;97138.03;;;12.63;51.66
20971;BME280;10644;48.834;10.088;2024-02-21T08:46:22;97137.72;;;12.83;52.28
20971;BME280;10644;48.834;10.088;2024-02-21T08:48:49;97136.84;;;13.00;52.42
20971;BME280;10644;48.834;10.088;2024-02-21T08:51:18;97152.22;;;13.15;51.95
20971;BME280;10644;48.834;10.088;2024-02-21T08:53:48;97147.13;;;13.29;51.73
20971;BME280;10644;48.834;10.088;2024-02-21T08:56:19;97136.03;;;13.43;50.85
20971;BME280;10644;48.834;10.088;2024-02-21T08:58:44;97137.25;;;13.51;50.32
20971;BME280;10644;48.834;10.088;2024-02-21T09:01:12;97132.31;;;13.62;49.68
20971;BME280;10644;48.834;10.088;2024-02-21T09:03:40;97137.09;;;13.68;48.55
20971;BME280;10644;48.834;10.088;2024-02-21T09:06:06;97134.72;;;13.65;48.44
20971;BME280;10644;48.834;10.088;2024-02-21T09:08:32;97124.97;;;13.70;48.30
20971;BME280;10644;48.834;10.088;2024-02-21T09:10:59;97124.97;;;13.70;48.17
20971;BME280;10644;48.834;10.088;2024-02-21T09:13:25;97123.13;;;13.72;47.82
20971;BME280;10644;48.834;10.088;2024-02-21T09:15:55;97115.41;;;13.72;47.49
20971;BME280;10644;48.834;10.088;2024-02-21T09:18:20;97115.56;;;13.55;47.26
20971;BME280;10644;48.834;10.088;2024-02-21T09:20:46;97121.28;;;13.60;47.54
20971;BME280;10644;48.834;10.088;2024-02-21T09:23:12;97122.00;;;13.62;47.22
20971;BME280;10644;48.834;10.088;2024-02-21T09:25:40;97114.84;;;13.67;47.68
20971;BME280;10644;48.834;10.088;2024-02-21T09:28:06;97113.75;;;13.85;47.34
20971;BME280;10644;48.834;10.088;2024-02-21T09:30:36;97103.53;;;13.97;46.98
20971;BME280;10644;48.834;10.088;2024-02-21T09:33:03;97111.72;;;14.04;47.01
20971;BME280;10644;48.834;10.088;2024-02-21T09:35:31;97101.03;;;13.96;46.66
20971;BME280;10644;48.834;10.088;2024-02-21T09:37:58;97109.72;;;13.81;47.10
20971;BME280;10644;48.834;10.088;2024-02-21T09:40:24;97106.19;;;13.96;46.92
20971;BME280;10644;48.834;10.088;2024-02-21T09:42:56;97110.78;;;13.91;46.08
20971;BME280;10644;48.834;10.088;2024-02-21T09:45:26;97109.50;;;13.56;46.37
20971;BME280;10644;48.834;10.088;2024-02-21T09:50:34;97096.81;;;13.53;48.34
20971;BME280;10644;48.834;10.088;2024-02-21T09:53:04;97097.19;;;13.61;46.44
20971;BME280;10644;48.834;10.088;2024-02-21T09:55:31;97096.72;;;13.41;46.78
20971;BME280;10644;48.834;10.088;2024-02-21T09:58:02;97100.84;;;13.43;46.87
20971;BME280;10644;48.834;10.088;2024-02-21T10:00:28;97092.00;;;13.47;47.15
20971;BME280;10644;48.834;10.088;2024-02-21T10:02:54;97093.78;;;13.60;46.50
20971;BME280;10644;48.834;10.088;2024-02-21T10:05:19;97087.97;;;13.43;46.29
20971;BME280;10644;48.834;10.088;2024-02-21T10:07:45;97086.69;;;13.36;46.87
20971;BME280;10644;48.834;10.088;2024-02-21T10:10:11;97086.78;;;13.48;47.01
20971;BME280;10644;48.834;10.088;2024-02-21T10:12:36;97077.41;;;13.48;46.45
20971;BME280;10644;48.834;10.088;2024-02-21T10:15:03;97076.13;;;13.54;45.54
20971;BME280;10644;48.834;10.088;2024-02-21T10:17:28;97068.66;;;13.92;45.76
20971;BME280;10644;48.834;10.088;2024-02-21T10:19:54;97064.81;;;14.27;45.82
20971;BME280;10644;48.834;10.088;2024-02-21T10:22:19;97057.88;;;14.27;44.26
20971;BME280;10644;48.834;10.088;2024-02-21T10:25:07;97059.50;;;14.42;43.98
20971;BME280;10644;48.834;10.088;2024-02-21T10:27:36;97060.81;;;14.35;44.01
20971;BME280;10644;48.834;10.088;2024-02-21T10:30:13;97046.81;;;14.66;44.85
20971;BME280;10644;48.834;10.088;2024-02-21T10:33:01;97054.69;;;14.77;44.49
20971;BME280;10644;48.834;10.088;2024-02-21T10:35:31;97046.44;;;14.84;42.94
20971;BME280;10644;48.834;10.088;2024-02-21T10:38:00;97050.69;;;14.98;43.92
20971;BME280;10644;48.834;10.088;2024-02-21T10:40:27;97052.91;;;15.16;43.74
20971;BME280;10644;48.834;10.088;2024-02-21T10:43:00;97050.50;;;15.01;43.80
20971;BME280;10644;48.834;10.088;2024-02-21T10:45:31;97048.13;;;14.98;43.92
20971;BME280;10644;48.834;10.088;2024-02-21T10:48:11;97046.94;;;15.16;44.27
20971;BME280;10644;48.834;10.088;2024-02-21T10:56:33;97027.75;;;14.81;43.65
20971;BME280;10644;48.834;10.088;2024-02-21T10:59:03;97024.94;;;15.23;43.14
20971;BME280;10644;48.834;10.088;2024-02-21T11:01:31;97019.81;;;15.48;41.15
20971;BME280;10644;48.834;10.088;2024-02-21T11:04:08;97018.88;;;15.49;40.32
20971;BME280;10644;48.834;10.088;2024-02-21T11:06:35;97008.34;;;15.64;41.67
20971;BME280;10644;48.834;10.088;2024-02-21T11:09:08;97009.53;;;15.84;41.63
20971;BME280;10644;48.834;10.088;2024-02-21T11:11:42;96994.75;;;15.86;40.78
20971;BME280;10644;48.834;10.088;2024-02-21T11:14:10;96988.78;;;16.09;40.52
20971;BME280;10644;48.834;10.088;2024-02-21T11:16:38;96980.47;;;16.29;40.44
20971;BME280;10644;48.834;10.088;2024-02-21T11:19:18;96971.41;;;16.47;40.15
20971;BME280;10644;48.834;10.088;2024-02-21T11:21:44;96960.72;;;16.51;39.56
20971;BME280;10644;48.834;10.088;2024-02-21T11:24:15;96963.22;;;16.64;39.80
20971;BME280;10644;48.834;10.088;2024-02-21T11:27:13;96956.00;;;16.80;40.46
20971;BME280;10644;48.834;10.088;2024-02-21T11:29:57;96944.16;;;16.99;39.48
20971;BME280;10644;48.834;10.088;2024-02-21T11:32:23;96934.63;;;17.11;39.21
20971;BME280;10644;48.834;10.088;2024-02-21T11:37:34;96925.91;;;17.12;39.07
20971;BME280;10644;48.834;10.088;2024-02-21T11:40:04;96925.47;;;17.40;39.57
20971;BME280;10644;48.834;10.088;2024-02-21T11:42:30;96910.38;;;17.34;38.21
20971;BME280;10644;48.834;10.088;2024-02-21T11:45:00;96909.59;;;17.55;38.61
20971;BME280;10644;48.834;10.088;2024-02-21T11:47:28;96910.88;;;17.50;37.89
20971;BME280;10644;48.834;10.088;2024-02-21T11:49:56;96902.88;;;17.64;38.01
20971;BME280;10644;48.834;10.088;2024-02-21T11:52:22;96906.25;;;17.31;37.69
20971;BME280;10644;48.834;10.088;2024-02-21T11:54:51;96901.94;;;17.43;38.29
20971;BME280;10644;48.834;10.088;2024-02-21T11:57:17;96886.41;;;17.54;38.21
20971;BME280;10644;48.834;10.088;2024-02-21T11:59:44;96889.09;;;17.52;37.91
20971;BME280;10644;48.834;10.088;2024-02-21T12:02:11;96882.50;;;17.59;37.87
20971;BME280;10644;48.834;10.088;2024-02-21T12:04:36;96872.50;;;17.44;37.33
20971;BME280;10644;48.834;10.088;2024-02-21T12:07:02;96873.81;;;17.27;37.86
20971;BME280;10644;48.834;10.088;2024-02-21T12:09:29;96871.78;;;17.31;37.92
20971;BME280;10644;48.834;10.088;2024-02-21T12:11:59;96860.63;;;17.41;38.44
20971;BME280;10644;48.834;10.088;2024-02-21T12:14:25;96854.63;;;17.41;38.86
20971;BME280;10644;48.834;10.088;2024-02-21T12:16:54;96848.13;;;17.24;38.10
20971;BME280;10644;48.834;10.088;2024-02-21T12:19:22;96845.91;;;16.98;39.74
20971;BME280;10644;48.834;10.088;2024-02-21T12:21:48;96842.25;;;17.22;39.13
20971;BME280;10644;48.834;10.088;2024-02-21T12:24:22;96840.47;;;17.34;39.37
20971;BME280;10644;48.834;10.088;2024-02-21T12:26:48;96834.81;;;17.51;38.81
20971;BME280;10644;48.834;10.088;2024-02-21T12:29:13;96824.13;;;17.44;38.64
20971;BME280;10644;48.834;10.088;2024-02-21T12:31:39;96839.09;;;17.41;37.96
20971;BME280;10644;48.834;10.088;2024-02-21T12:34:05;96821.88;;;17.40;38.08
20971;BME280;10644;48.834;10.088;2024-02-21T12:36:35;96819.75;;;17.45;38.71
20971;BME280;10644;48.834;10.088;2024-02-21T12:39:00;96813.19;;;17.41;38.59
20971;BME280;10644;48.834;10.088;2024-02-21T12:41:28;96804.69;;;17.28;38.71
20971;BME280;10644;48.834;10.088;2024-02-21T12:43:55;96808.72;;;16.88;38.72
20971;BME280;10644;48.834;10.088;2024-02-21T12:46:21;96808.25;;;16.94;38.87
20971;BME280;10644;48.834;10.088;2024-02-21T12:48:50;96795.78;;;16.99;38.88
20971;BME280;10644;48.834;10.088;2024-02-21T12:51:17;96792.72;;;17.05;38.82
20971;BME280;10644;48.834;10.088;2024-02-21T12:53:49;96778.84;;;16.95;38.20
20971;BME280;10644;48.834;10.088;2024-02-21T12:56:16;96784.16;;;16.82;39.12
20971;BME280;10644;48.834;10.088;2024-02-21T12:58:42;96764.50;;;17.02;38.76
20971;BME280;10644;48.834;10.088;2024-02-21T13:01:08;96770.22;;;17.27;38.92